Time;durP1;ratioP1;P1;durP2;ratioP2;P2;SDS_P1;SDS_P2;PMS_P1;PMS_P2;Temp;Humidity;BMP_temperature;BMP_pressure;BME280_temperature;BME280_humidity;BME280_pressure;Samples;Min_cycle;Max_cycle;Signal;HPM_P1;HPM_P2
2022/10/21 00:00:13;;;;;;;31.73;18.87;;;;;;;3.03;75.23;101981.39;1743769;81;21595;-88
2022/10/21 00:02:42;;;;;;;31.35;20.32;;;;;;;3.03;75.35;101987.48;1714336;81;21132;-88
2022/10/21 00:05:09;;;;;;;30.30;18.82;;;;;;;3.01;75.32;101981.27;1701212;81;21591;-87
2022/10/21 00:07:37;;;;;;;30.55;19.55;;;;;;;2.99;75.36;101981.95;1714127;80;21058;-87
2022/10/21 00:10:05;;;;;;;30.48;20.20;;;;;;;2.99;75.46;101981.55;1734041;81;21622;-88
2022/10/21 00:12:31;;;;;;;30.60;20.30;;;;;;;2.98;75.41;101979.72;1733125;80;21049;-87
2022/10/21 00:14:58;;;;;;;34.08;21.37;;;;;;;2.98;75.47;101982.33;1722895;81;21069;-88
2022/10/21 00:17:29;;;;;;;34.38;20.77;;;;;;;2.95;75.42;101967.81;1727957;81;21076;-88
2022/10/21 00:19:54;;;;;;;28.40;19.05;;;;;;;2.92;75.37;101964.97;1728260;81;21841;-87
2022/10/21 00:22:20;;;;;;;33.38;20.43;;;;;;;2.89;75.38;101965.66;1694568;83;21140;-87
2022/10/21 00:24:47;;;;;;;38.45;24.20;;;;;;;2.89;75.38;101960.83;1758314;81;21052;-87
2022/10/21 00:27:14;;;;;;;41.05;25.10;;;;;;;2.85;75.33;101953.22;1740869;81;21456;-89
2022/10/21 00:29:41;;;;;;;32.48;21.50;;;;;;;2.83;75.46;101943.06;1720937;81;21518;-89
2022/10/21 00:32:08;;;;;;;33.42;21.77;;;;;;;2.83;75.56;101933.06;1748000;81;22292;-88
2022/10/21 00:34:35;;;;;;;33.42;21.48;;;;;;;2.82;75.65;101925.67;1748195;81;22286;-88
2022/10/21 00:37:01;;;;;;;34.10;21.82;;;;;;;2.84;75.69;101932.30;1748117;81;21081;-89
2022/10/21 00:39:29;;;;;;;33.23;21.57;;;;;;;2.85;75.80;101931.11;1745012;81;21104;-89
2022/10/21 00:41:55;;;;;;;35.28;22.20;;;;;;;2.89;75.86;101929.61;1731755;81;21049;-88
2022/10/21 00:44:22;;;;;;;33.48;22.45;;;;;;;2.89;75.85;101925.34;1748368;81;21742;-89
2022/10/21 00:47:01;;;;;;;32.00;21.70;;;;;;;2.89;75.81;101914.02;1748264;81;20986;-89
2022/10/21 00:49:49;;;;;;;30.17;21.95;;;;;;;2.91;75.79;101918.97;1726039;81;21168;-89
2022/10/21 00:52:19;;;;;;;29.12;20.85;;;;;;;2.89;75.72;101919.22;1697988;83;21166;-88
2022/10/21 00:54:48;;;;;;;38.25;23.35;;;;;;;2.87;75.82;101915.23;1706298;81;21121;-88
2022/10/21 00:57:15;;;;;;;31.75;22.95;;;;;;;2.84;75.79;101901.98;1748567;81;21742;-89
2022/10/21 00:59:44;;;;;;;34.13;21.68;;;;;;;2.80;75.78;101887.35;1720997;81;21072;-89
2022/10/21 01:02:11;;;;;;;32.45;22.25;;;;;;;2.73;75.80;101881.67;1748603;81;21168;-88
2022/10/21 01:04:38;;;;;;;34.83;22.90;;;;;;;2.71;75.94;101880.66;1724086;81;21572;-88
2022/10/21 01:07:05;;;;;;;32.40;22.67;;;;;;;2.71;76.06;101875.86;1760795;80;21073;-88
2022/10/21 01:09:31;;;;;;;32.83;22.85;;;;;;;2.68;76.08;101869.12;1748275;81;21729;-89
2022/10/21 01:11:58;;;;;;;35.70;22.93;;;;;;;2.67;76.11;101866.92;1748067;81;21076;-90
2022/10/21 01:14:45;;;;;;;31.35;23.00;;;;;;;2.68;76.26;101861.32;1711455;81;22029;-89
2022/10/21 01:17:29;;;;;;;31.07;22.70;;;;;;;2.68;76.20;101863.55;1716103;81;22078;-89
2022/10/21 01:20:19;;;;;;;37.15;23.20;;;;;;;2.66;76.14;101858.60;1716368;83;21098;-88
2022/10/21 01:23:43;;;;;;;33.70;21.30;;;;;;;2.62;76.10;101851.77;1697577;82;21749;-89
2022/10/21 01:26:31;;;;;;;33.53;22.22;;;;;;;2.61;76.21;101840.85;1771584;80;22345;-89
2022/10/21 01:29:03;;;;;;;33.83;21.82;;;;;;;2.59;76.15;101837.23;1754618;80;21117;-90
2022/10/21 01:31:47;;;;;;;33.50;21.27;;;;;;;2.56;76.19;101833.13;1739234;80;21620;-89
2022/10/21 01:34:28;;;;;;;31.85;21.80;;;;;;;2.52;76.25;101837.19;1750631;80;21421;-90
2022/10/21 01:37:16;;;;;;;32.45;22.77;;;;;;;2.53;76.26;101829.89;1679319;82;22482;-89
2022/10/21 01:39:55;;;;;;;30.20;20.10;;;;;;;2.52;76.28;101828.09;1770894;79;21050;-89
2022/10/21 01:42:36;;;;;;;31.30;21.35;;;;;;;2.52;76.31;101827.70;1737202;82;21065;-90
2022/10/21 01:45:22;;;;;;;30.05;21.17;;;;;;;2.52;76.39;101820.30;1680998;83;21739;-89
2022/10/21 01:47:52;;;;;;;28.42;20.43;;;;;;;2.52;76.37;101821.59;1701651;82;21662;-88
2022/10/21 01:50:24;;;;;;;26.70;20.70;;;;;;;2.49;76.30;101824.85;1708729;81;21761;-90
2022/10/21 01:52:55;;;;;;;28.42;21.20;;;;;;;2.46;76.35;101823.34;1705253;82;21072;-89
2022/10/21 01:55:22;;;;;;;30.57;20.57;;;;;;;2.44;76.37;101818.44;1704081;83;21126;-89
2022/10/21 01:57:53;;;;;;;27.48;19.95;;;;;;;2.42;76.41;101812.59;1703657;83;21065;-88
2022/10/21 02:00:21;;;;;;;27.73;20.05;;;;;;;2.38;76.35;101817.05;1696111;81;21627;-89
2022/10/21 02:02:48;;;;;;;32.83;19.77;;;;;;;2.34;76.35;101806.83;1710238;82;21750;-89
2022/10/21 02:05:21;;;;;;;30.35;20.43;;;;;;;2.31;76.42;101794.92;1676311;83;21090;-89
2022/10/21 02:07:48;;;;;;;25.57;19.60;;;;;;;2.31;76.53;101797.52;1697586;83;21029;-89
2022/10/21 02:10:16;;;;;;;26.40;19.60;;;;;;;2.30;76.59;101803.09;1738395;81;20976;-90
2022/10/21 02:12:44;;;;;;;24.15;18.12;;;;;;;2.29;76.72;101794.80;1721677;80;21029;-89
2022/10/21 02:15:13;;;;;;;26.17;18.37;;;;;;;2.30;76.79;101799.59;1743275;81;22537;-90
2022/10/21 02:17:45;;;;;;;24.00;18.48;;;;;;;2.31;76.87;101797.52;1666748;84;21118;-90
2022/10/21 02:20:12;;;;;;;26.10;19.35;;;;;;;2.33;76.93;101806.33;1712900;81;21022;-89
2022/10/21 02:22:39;;;;;;;27.93;19.60;;;;;;;2.35;77.04;101804.75;1719823;81;20998;-89
2022/10/21 02:25:22;;;;;;;24.02;18.73;;;;;;;2.34;76.97;101800.33;1702062;82;21108;-88
2022/10/21 02:27:49;;;;;;;24.32;18.23;;;;;;;2.38;77.07;101796.27;1690672;81;22728;-89
2022/10/21 02:30:16;;;;;;;25.82;17.42;;;;;;;2.41;77.08;101787.01;1731713;81;20999;-90
2022/10/21 02:33:05;;;;;;;25.82;18.45;;;;;;;2.39;76.99;101779.91;1740000;81;21762;-89
2022/10/21 02:35:50;;;;;;;23.00;16.70;;;;;;;2.40;76.95;101780.39;1711515;81;21070;-89
2022/10/21 02:38:41;;;;;;;22.85;17.23;;;;;;;2.38;76.99;101767.28;1677407;83;21074;-89
2022/10/21 02:41:13;;;;;;;24.20;16.97;;;;;;;2.38;76.99;101765.98;1711468;81;21787;-89
2022/10/21 02:43:56;;;;;;;23.55;17.25;;;;;;;2.39;77.06;101763.02;1711770;81;21105;-88
2022/10/21 02:46:23;;;;;;;28.10;18.87;;;;;;;2.41;77.03;101769.22;1711781;81;21535;-88
2022/10/21 02:48:49;;;;;;;54.67;33.73;;;;;;;2.41;77.10;101770.12;1708575;81;21212;-89
2022/10/21 02:51:16;;;;;;;147.35;82.62;;;;;;;2.40;77.01;101759.20;1681936;83;21106;-89
2022/10/21 02:53:43;;;;;;;127.75;72.75;;;;;;;2.40;77.02;101760.50;1685326;83;21892;-89
2022/10/21 02:56:12;;;;;;;128.42;71.97;;;;;;;2.41;77.06;101761.43;1678507;83;21081;-88
2022/10/21 02:58:38;;;;;;;128.42;73.67;;;;;;;2.41;77.02;101758.42;1678464;84;21089;-88
2022/10/21 03:01:06;;;;;;;152.07;86.15;;;;;;;2.41;76.97;101755.83;1681097;83;21153;-88
2022/10/21 03:03:33;;;;;;;130.50;72.22;;;;;;;2.36;76.89;101745.48;1681025;83;21130;-88
2022/10/21 03:05:59;;;;;;;106.27;62.93;;;;;;;2.35;76.87;101737.20;1692919;82;21740;-89
2022/10/21 03:08:26;;;;;;;73.72;42.67;;;;;;;2.32;76.87;101739.16;1695832;82;21110;-88
2022/10/21 03:10:53;;;;;;;73.80;44.55;;;;;;;2.32;76.95;101739.16;1690339;82;21073;-89
2022/10/21 03:13:22;;;;;;;49.45;31.62;;;;;;;2.33;76.96;101734.88;1690797;82;21105;-88
2022/10/21 03:15:49;;;;;;;37.38;25.77;;;;;;;2.32;77.00;101723.56;1698069;82;21124;-89
2022/10/21 03:18:16;;;;;;;30.32;21.68;;;;;;;2.35;77.09;101726.80;1703610;82;21800;-89
2022/10/21 03:20:43;;;;;;;32.80;22.48;;;;;;;2.36;77.11;101714.70;1693017;83;20978;-89
2022/10/21 03:23:10;;;;;;;34.23;21.68;;;;;;;2.38;77.24;101707.52;1688846;83;22505;-88
2022/10/21 03:25:36;;;;;;;31.85;22.15;;;;;;;2.42;77.31;101703.08;1710927;82;21058;-88
2022/10/21 03:28:04;;;;;;;31.55;20.45;;;;;;;2.44;77.35;101692.41;1755989;80;21073;-89
2022/10/21 03:30:30;;;;;;;27.02;20.50;;;;;;;2.47;77.40;101691.30;1748996;80;21749;-88
2022/10/21 03:32:57;;;;;;;26.02;19.07;;;;;;;2.53;77.47;101693.44;1748451;80;21735;-88
2022/10/21 03:35:24;;;;;;;28.10;19.92;;;;;;;2.57;77.58;101682.47;1756194;80;21070;-87
2022/10/21 03:37:51;;;;;;;24.80;19.48;;;;;;;2.62;77.61;101684.12;1752005;79;21750;-87
2022/10/21 03:40:18;;;;;;;27.22;19.20;;;;;;;2.67;77.67;101682.36;1752523;80;21731;-88
2022/10/21 03:42:44;;;;;;;24.65;18.30;;;;;;;2.75;77.75;101692.41;1749052;80;22586;-88
2022/10/21 03:45:11;;;;;;;24.80;18.50;;;;;;;2.81;77.74;101696.73;1748944;80;21096;-88
2022/10/21 03:47:38;;;;;;;28.67;19.07;;;;;;;2.87;77.74;101698.09;1749203;80;21542;-88
2022/10/21 03:50:06;;;;;;;26.50;18.92;;;;;;;2.90;77.44;101700.88;1746470;80;21073;-86
2022/10/21 03:52:33;;;;;;;26.65;19.48;;;;;;;2.88;77.31;101703.78;1748588;80;21091;-86
2022/10/21 03:55:00;;;;;;;27.60;19.37;;;;;;;2.86;77.25;101703.17;1747721;80;21689;-86
2022/10/21 03:57:26;;;;;;;26.73;19.45;;;;;;;2.84;77.16;101691.77;1753108;80;21501;-86
2022/10/21 03:59:53;;;;;;;26.82;20.10;;;;;;;2.83;77.21;101694.73;1747125;80;21057;-86
2022/10/21 04:02:20;;;;;;;29.75;21.15;;;;;;;2.79;77.13;101683.62;1760859;80;21038;-86
2022/10/21 04:04:47;;;;;;;26.60;19.10;;;;;;;2.79;77.23;101688.81;1746179;80;21136;-85
2022/10/21 04:07:14;;;;;;;28.40;19.27;;;;;;;2.79;77.28;101690.52;1781483;80;22732;-87
2022/10/21 04:09:40;;;;;;;27.77;19.27;;;;;;;2.81;77.40;101693.73;1748597;81;21910;-86
2022/10/21 04:12:07;;;;;;;24.60;17.32;;;;;;;2.85;77.48;101685.75;1730721;81;21117;-87
2022/10/21 04:14:34;;;;;;;25.32;16.85;;;;;;;2.90;77.62;101675.29;1720692;81;21062;-87
2022/10/21 04:17:01;;;;;;;25.82;16.65;;;;;;;2.97;77.63;101676.23;1742117;80;21077;-86
2022/10/21 04:19:28;;;;;;;21.48;16.00;;;;;;;3.02;77.67;101672.27;1724874;81;21757;-87
2022/10/21 04:21:55;;;;;;;25.15;17.42;;;;;;;3.08;77.67;101667.89;1724686;81;21557;-86
2022/10/21 04:24:21;;;;;;;24.80;16.37;;;;;;;3.15;77.67;101662.70;1729056;81;22203;-87
2022/10/21 04:26:48;;;;;;;26.37;16.67;;;;;;;3.19;77.57;101656.53;1726584;81;21117;-88
2022/10/21 04:29:15;;;;;;;24.25;16.00;;;;;;;3.20;77.47;101654.41;1749069;80;21085;-87
2022/10/21 04:31:42;;;;;;;23.12;15.55;;;;;;;3.23;77.44;101654.64;1725828;81;21728;-87
2022/10/21 04:34:09;;;;;;;25.95;16.80;;;;;;;3.22;77.38;101646.72;1738273;81;21057;-88
2022/10/21 04:36:36;;;;;;;22.62;15.75;;;;;;;3.23;77.34;101645.53;1727339;81;21854;-88
2022/10/21 04:39:03;;;;;;;24.27;15.68;;;;;;;3.23;77.28;101645.91;1729454;81;21485;-87
2022/10/21 04:41:30;;;;;;;22.42;15.38;;;;;;;3.22;77.23;101646.31;1728106;81;20988;-88
2022/10/21 04:43:57;;;;;;;23.65;16.80;;;;;;;3.21;77.15;101638.39;1729076;81;22370;-89
2022/10/21 04:46:23;;;;;;;26.27;17.55;;;;;;;3.18;77.17;101639.09;1729043;81;21023;-91
2022/10/21 04:48:50;;;;;;;25.50;17.17;;;;;;;3.16;77.17;101626.39;1728075;81;20991;-91
2022/10/21 04:51:17;;;;;;;22.13;16.30;;;;;;;3.13;77.05;101625.27;1729882;81;20987;-92
2022/10/21 04:53:43;;;;;;;23.85;16.70;;;;;;;3.11;77.14;101626.45;1726699;81;21533;-91
2022/10/21 04:56:10;;;;;;;26.23;16.77;;;;;;;3.08;77.05;101614.16;1734764;81;22571;-91
2022/10/21 04:58:37;;;;;;;22.70;16.52;;;;;;;3.05;77.01;101613.04;1725373;81;21059;-89
2022/10/21 05:01:04;;;;;;;25.35;16.40;;;;;;;3.00;77.01;101606.20;1727398;81;21482;-88
2022/10/21 05:03:32;;;;;;;25.50;16.40;;;;;;;2.97;76.94;101599.91;1730960;81;21684;-88
2022/10/21 05:05:58;;;;;;;24.15;16.87;;;;;;;2.90;76.95;101595.97;1736596;81;22201;-90
2022/10/21 05:08:25;;;;;;;24.12;16.90;;;;;;;2.87;77.00;101587.95;1743036;81;21746;-91
2022/10/21 05:10:59;;;;;;;29.23;17.98;;;;;;;2.86;77.08;101587.05;1739873;81;21070;-88
2022/10/21 05:13:28;;;;;;;24.40;17.32;;;;;;;2.84;77.08;101578.66;1741284;81;20954;-88
2022/10/21 05:16:02;;;;;;;36.15;21.52;;;;;;;2.83;77.13;101584.23;1732233;81;21142;-84
2022/10/21 05:18:29;;;;;;;37.03;23.95;;;;;;;2.86;77.32;101579.25;1737840;80;21625;-91
2022/10/21 05:20:56;;;;;;;36.85;24.15;;;;;;;2.87;77.25;101582.75;1756935;80;21781;-86
2022/10/21 05:23:23;;;;;;;41.83;27.17;;;;;;;2.89;77.26;101581.16;1742878;80;21038;-86
2022/10/21 05:25:50;;;;;;;42.60;26.25;;;;;;;2.89;77.24;101579.48;1759661;80;21294;-85
2022/10/21 05:28:19;;;;;;;40.12;25.37;;;;;;;2.91;77.22;101572.69;1752473;80;21078;-87
2022/10/21 05:30:46;;;;;;;40.30;25.65;;;;;;;2.96;77.30;101569.48;1743469;80;21011;-86
2022/10/21 05:33:13;;;;;;;40.88;29.40;;;;;;;2.99;77.31;101558.01;1743037;80;21720;-86
2022/10/21 05:35:40;;;;;;;44.85;32.10;;;;;;;3.03;77.38;101554.81;1743591;80;20986;-87
2022/10/21 05:38:06;;;;;;;45.60;32.95;;;;;;;3.07;77.37;101555.11;1763783;80;21475;-87
2022/10/21 05:40:33;;;;;;;44.70;30.90;;;;;;;3.12;77.34;101554.14;1743352;80;21003;-87
2022/10/21 05:43:00;;;;;;;42.23;31.00;;;;;;;3.15;77.32;101553.44;1743089;80;22320;-86
2022/10/21 05:45:27;;;;;;;44.23;30.75;;;;;;;3.20;77.40;101554.25;1742010;80;22199;-87
2022/10/21 05:47:54;;;;;;;43.00;29.32;;;;;;;3.27;77.45;101553.87;1743290;80;21081;-87
2022/10/21 05:50:20;;;;;;;41.55;30.17;;;;;;;3.35;77.38;101550.88;1741915;80;21653;-86
2022/10/21 05:52:47;;;;;;;42.08;30.25;;;;;;;3.42;77.30;101550.50;1743493;80;21848;-87
2022/10/21 05:55:15;;;;;;;41.70;29.40;;;;;;;3.49;77.34;101551.00;1771103;80;21694;-87
2022/10/21 05:57:41;;;;;;;40.15;29.42;;;;;;;3.60;77.31;101559.91;1752399;80;21800;-86
2022/10/21 06:00:10;;;;;;;41.08;29.87;;;;;;;3.63;77.12;101557.11;1742399;80;21033;-86
2022/10/21 06:02:37;;;;;;;39.33;29.77;;;;;;;3.72;77.11;101561.11;1744804;80;20990;-86
2022/10/21 06:05:05;;;;;;;40.92;28.52;;;;;;;3.80;77.15;101554.72;1742768;80;21161;-87
2022/10/21 06:07:31;;;;;;;39.08;27.67;;;;;;;3.87;76.91;101553.02;1786769;80;20965;-86
2022/10/21 06:09:58;;;;;;;35.10;25.72;;;;;;;3.94;76.96;101546.48;1750773;81;21762;-87
2022/10/21 06:12:25;;;;;;;36.95;26.60;;;;;;;3.99;76.91;101537.27;1750648;80;21086;-87
2022/10/21 06:14:52;;;;;;;77.75;48.17;;;;;;;4.07;76.87;101538.65;1750601;81;21092;-87
2022/10/21 06:17:19;;;;;;;37.58;27.75;;;;;;;4.15;76.81;101537.45;1730261;81;21065;-88
2022/10/21 06:19:47;;;;;;;37.25;26.73;;;;;;;4.21;76.71;101539.14;1751099;80;21539;-88
2022/10/21 06:22:14;;;;;;;45.52;29.70;;;;;;;4.26;76.66;101533.82;1707250;82;21735;-87
2022/10/21 06:24:41;;;;;;;42.05;29.82;;;;;;;4.32;76.57;101531.08;1731579;81;22338;-87
2022/10/21 06:27:08;;;;;;;41.23;27.82;;;;;;;4.39;76.54;101530.28;1751192;81;21080;-87
2022/10/21 06:29:34;;;;;;;42.33;27.62;;;;;;;4.44;76.51;101530.14;1730689;81;21041;-87
2022/10/21 06:32:01;;;;;;;48.83;28.55;;;;;;;4.51;76.36;101521.42;1751102;81;21143;-87
2022/10/21 06:34:28;;;;;;;43.58;27.98;;;;;;;4.57;76.42;101530.91;1746918;81;21831;-87
2022/10/21 06:36:55;;;;;;;40.17;28.07;;;;;;;4.62;76.24;101525.17;1735199;81;21061;-88
2022/10/21 06:39:22;;;;;;;41.40;27.55;;;;;;;4.71;76.22;101531.75;1750884;80;21073;-88
2022/10/21 06:41:49;;;;;;;41.88;27.20;;;;;;;4.80;76.23;101529.29;1750706;81;21061;-87
2022/10/21 06:44:15;;;;;;;43.48;28.42;;;;;;;4.90;76.22;101524.63;1750984;81;21666;-87
2022/10/21 06:46:42;;;;;;;41.30;31.05;;;;;;;4.98;76.04;101513.86;1751048;81;21722;-87
2022/10/21 06:49:09;;;;;;;47.55;33.08;;;;;;;4.98;75.90;101503.84;1733971;81;21077;-88
2022/10/21 06:51:36;;;;;;;46.05;31.30;;;;;;;5.06;75.89;101507.38;1748510;81;21049;-87
2022/10/21 06:54:03;;;;;;;45.48;29.42;;;;;;;5.15;75.82;101507.45;1750870;81;21757;-87
2022/10/21 06:56:30;;;;;;;44.70;28.20;;;;;;;5.20;75.65;101500.77;1751003;81;21686;-87
2022/10/21 06:58:57;;;;;;;42.55;25.92;;;;;;;5.26;75.58;101498.13;1750909;80;21730;-88
2022/10/21 07:01:28;;;;;;;34.15;21.80;;;;;;;5.35;75.52;101488.63;1730052;81;21089;-87
2022/10/21 07:03:55;;;;;;;31.57;21.55;;;;;;;5.39;75.24;101484.08;1740903;81;21045;-88
2022/10/21 07:06:22;;;;;;;36.68;23.10;;;;;;;5.45;75.18;101481.81;1726586;81;21100;-87
2022/10/21 07:08:51;;;;;;;30.08;22.37;;;;;;;5.48;75.08;101472.34;1725757;81;21100;-87
2022/10/21 07:11:17;;;;;;;29.45;20.15;;;;;;;5.55;75.14;101467.55;1705997;81;22596;-88
2022/10/21 07:13:44;;;;;;;28.57;21.17;;;;;;;5.59;74.79;101456.88;1742344;81;21069;-87
2022/10/21 07:16:24;;;;;;;27.95;21.17;;;;;;;5.60;74.62;101467.42;1750591;80;21076;-87
2022/10/21 07:18:51;;;;;;;33.28;22.77;;;;;;;5.62;74.75;101460.56;1743029;81;21396;-87
2022/10/21 07:21:20;;;;;;;41.68;26.25;;;;;;;5.72;74.67;101461.09;1736506;81;21078;-88
2022/10/21 07:23:49;;;;;;;38.85;25.20;;;;;;;5.78;74.67;101466.64;1736859;82;21788;-87
2022/10/21 07:26:18;;;;;;;30.72;21.87;;;;;;;5.78;74.44;101450.59;1736791;82;21097;-88
2022/10/21 07:28:46;;;;;;;23.65;17.42;;;;;;;5.79;74.34;101452.78;1718040;82;21054;-87
2022/10/21 07:31:14;;;;;;;22.30;16.52;;;;;;;5.76;74.14;101447.37;1733964;82;22031;-87
2022/10/21 07:33:41;;;;;;;22.40;15.13;;;;;;;5.77;74.08;101438.73;1736986;82;21148;-87
2022/10/21 07:36:20;;;;;;;22.42;16.27;;;;;;;5.75;73.99;101432.53;1736842;82;21668;-87
2022/10/21 07:38:48;;;;;;;24.35;15.10;;;;;;;5.79;74.10;101433.19;1718707;82;20996;-88
2022/10/21 07:41:22;;;;;;;23.98;15.93;;;;;;;5.88;74.24;101430.20;1699989;83;20984;-87
2022/10/21 07:43:49;;;;;;;24.15;16.12;;;;;;;5.94;74.14;101432.72;1708876;82;21067;-87
2022/10/21 07:46:17;;;;;;;21.37;15.95;;;;;;;6.07;74.29;101433.02;1696975;83;21680;-87
2022/10/21 07:48:44;;;;;;;23.32;16.48;;;;;;;6.14;74.15;101439.48;1740874;81;21756;-87
2022/10/21 07:51:14;;;;;;;23.07;17.50;;;;;;;6.26;74.23;101432.28;1766796;80;21061;-87
2022/10/21 07:53:40;;;;;;;24.87;17.02;;;;;;;6.37;74.16;101435.06;1741572;81;21098;-87
2022/10/21 07:56:12;;;;;;;24.12;18.02;;;;;;;6.53;74.38;101428.02;1761912;80;21057;-87
2022/10/21 07:58:40;;;;;;;34.25;20.92;;;;;;;6.68;74.31;101421.38;1738235;80;21056;-87
2022/10/21 08:01:08;;;;;;;61.85;38.15;;;;;;;6.81;74.15;101413.33;1737129;82;21739;-88
2022/10/21 08:03:35;;;;;;;46.08;29.50;;;;;;;6.92;74.07;101409.53;1714089;82;21114;-87
2022/10/21 08:06:03;;;;;;;31.12;21.27;;;;;;;7.05;74.01;101404.51;1679594;83;21099;-87
2022/10/21 08:08:30;;;;;;;33.38;20.08;;;;;;;7.16;73.92;101403.31;1761865;80;21508;-87
2022/10/21 08:10:57;;;;;;;36.77;23.30;;;;;;;7.30;73.90;101404.40;1729718;82;21490;-87
2022/10/21 08:13:24;;;;;;;32.83;20.97;;;;;;;7.37;73.61;101396.02;1705216;83;22526;-87
2022/10/21 08:15:53;;;;;;;30.23;21.12;;;;;;;7.43;73.71;101394.11;1711392;82;20998;-87
2022/10/21 08:18:22;;;;;;;30.57;20.08;;;;;;;7.50;73.53;101385.30;1741299;81;20978;-87
2022/10/21 08:20:49;;;;;;;31.15;20.32;;;;;;;7.56;73.47;101381.69;1752512;80;21037;-87
2022/10/21 08:23:19;;;;;;;31.27;20.85;;;;;;;7.65;73.43;101377.27;1752376;81;20990;-86
2022/10/21 08:25:52;;;;;;;42.15;28.62;;;;;;;7.75;73.35;101379.52;1731601;80;21716;-87
2022/10/21 08:28:19;;;;;;;40.60;29.02;;;;;;;7.85;73.28;101382.56;1750430;81;21074;-87
2022/10/21 08:30:47;;;;;;;39.15;26.87;;;;;;;7.94;73.22;101365.53;1750707;81;21085;-87
2022/10/21 08:33:14;;;;;;;37.23;25.88;;;;;;;8.05;72.98;101371.27;1750999;81;21057;-87
2022/10/21 08:35:40;;;;;;;35.88;24.37;;;;;;;8.11;72.70;101366.29;1750915;81;21643;-87
2022/10/21 08:38:08;;;;;;;42.60;29.27;;;;;;;8.20;72.63;101370.14;1750816;81;22547;-87
2022/10/21 08:40:42;;;;;;;46.10;30.10;;;;;;;8.27;72.51;101378.77;1750687;81;21081;-87
2022/10/21 08:43:21;;;;;;;39.88;27.95;;;;;;;8.33;72.35;101379.95;1750699;81;21148;-87
2022/10/21 08:46:10;;;;;;;43.05;28.67;;;;;;;8.41;72.31;101380.67;1750522;81;21149;-87
2022/10/21 08:48:45;;;;;;;39.05;25.23;;;;;;;8.47;72.12;101382.31;1704706;83;21120;-87
2022/10/21 08:51:27;;;;;;;30.90;22.65;;;;;;;8.59;72.09;101388.07;1714689;82;21759;-87
2022/10/21 08:53:54;;;;;;;41.23;28.38;;;;;;;8.78;72.10;101387.13;1728375;82;21066;-87
2022/10/21 08:56:21;;;;;;;49.48;32.35;;;;;;;8.95;72.06;101380.88;1730983;81;21516;-88
2022/10/21 08:58:49;;;;;;;48.13;31.75;;;;;;;9.17;71.97;101375.61;1735628;81;21057;-87
2022/10/21 09:01:24;;;;;;;41.58;29.57;;;;;;;9.36;71.71;101383.39;1755069;81;21113;-87
2022/10/21 09:04:31;;;;;;;31.27;20.65;;;;;;;9.52;71.46;101369.14;1705817;81;21791;-88
2022/10/21 09:07:31;;;;;;;25.88;18.27;;;;;;;9.63;70.98;101363.88;1716418;82;20875;-87
2022/10/21 09:10:05;;;;;;;23.75;16.97;;;;;;;9.69;70.71;101359.28;1705485;83;21044;-87
2022/10/21 09:12:56;;;;;;;24.18;17.77;;;;;;;9.69;70.22;101359.28;1743691;81;21013;-87
2022/10/21 09:15:53;;;;;;;24.32;17.00;;;;;;;9.69;70.29;101352.28;1743042;81;21080;-87
2022/10/21 09:18:31;;;;;;;20.75;16.52;;;;;;;9.71;70.03;101348.41;1716665;81;21759;-87
2022/10/21 09:21:12;;;;;;;24.32;16.82;;;;;;;9.74;70.00;101348.49;1708750;82;21689;-88
2022/10/21 09:23:57;;;;;;;19.42;16.05;;;;;;;9.81;69.98;101343.06;1706317;83;21512;-87
2022/10/21 09:26:40;;;;;;;22.15;16.52;;;;;;;9.85;69.77;101352.85;1688720;83;21142;-87
2022/10/21 09:29:37;;;;;;;21.30;16.15;;;;;;;9.89;69.57;101350.81;1706053;83;27627;-87
2022/10/21 09:32:23;;;;;;;22.50;16.23;;;;;;;9.86;69.34;101348.09;1692774;83;22015;-87
2022/10/21 09:35:35;;;;;;;22.58;16.55;;;;;;;9.81;69.18;101348.32;1692794;83;21125;-87
2022/10/21 09:38:27;;;;;;;23.47;16.57;;;;;;;9.76;68.95;101353.81;1754912;80;21315;-87
2022/10/21 09:41:01;;;;;;;21.40;15.55;;;;;;;9.65;68.76;101347.75;1738372;81;21047;-87
2022/10/21 09:43:26;;;;;;;21.80;15.90;;;;;;;9.62;68.80;101344.11;1687806;82;20911;-86
2022/10/21 09:45:53;;;;;;;20.80;15.93;;;;;;;9.65;68.94;101344.23;1687022;83;21830;-86
2022/10/21 09:48:31;;;;;;;27.82;18.20;;;;;;;9.75;68.97;101345.05;1767376;79;20979;-87
2022/10/21 09:51:05;;;;;;;20.62;17.05;;;;;;;9.86;68.87;101343.71;1766343;80;21384;-86
2022/10/21 09:54:11;;;;;;;20.95;15.80;;;;;;;10.01;68.95;101337.24;1697751;82;21850;-87
2022/10/21 09:56:49;;;;;;;25.68;16.57;;;;;;;10.21;68.88;101338.86;1602936;88;21064;-87
2022/10/21 09:59:18;;;;;;;24.87;18.17;;;;;;;10.43;68.50;101331.74;1616293;87;21733;-87
2022/10/21 10:01:45;;;;;;;24.40;16.00;;;;;;;10.52;68.11;101329.44;1602937;88;21735;-86
2022/10/21 10:04:34;;;;;;;22.75;15.93;;;;;;;10.60;68.26;101319.16;1596065;88;21638;-87
2022/10/21 10:07:05;;;;;;;24.02;16.12;;;;;;;10.82;68.12;101327.37;1611036;86;21161;-86
2022/10/21 10:09:32;;;;;;;26.02;15.20;;;;;;;10.98;67.89;101308.59;1608575;86;21687;-86
2022/10/21 10:12:07;;;;;;;35.63;17.55;;;;;;;11.08;67.51;101311.09;1656149;86;23444;-86
2022/10/21 10:14:39;;;;;;;27.67;16.93;;;;;;;11.14;67.42;101301.17;1625038;86;21145;-86
2022/10/21 10:17:27;;;;;;;27.82;16.60;;;;;;;11.22;67.32;101307.56;1661912;86;21092;-86
2022/10/21 10:20:15;;;;;;;37.65;17.92;;;;;;;11.28;67.16;101303.83;1662938;85;21079;-86
2022/10/21 10:22:49;;;;;;;34.18;17.23;;;;;;;11.28;66.85;101292.86;1661088;85;21175;-86
2022/10/21 10:25:24;;;;;;;34.67;16.73;;;;;;;11.21;66.79;101284.28;1653259;86;21781;-87
2022/10/21 10:28:00;;;;;;;40.40;17.10;;;;;;;11.23;66.64;101275.11;1660679;85;21112;-86
2022/10/21 10:30:38;;;;;;;37.75;17.82;;;;;;;11.21;66.54;101272.86;1672565;83;22311;-87
2022/10/21 10:33:21;;;;;;;34.80;17.00;;;;;;;11.18;66.38;101265.73;1736061;81;21118;-87
2022/10/21 10:35:53;;;;;;;;;;;;;;;11.14;66.39;101254.63;1765581;80;21535;-86
2022/10/21 10:38:41;;;;;;;26.60;16.00;;;;;;;11.13;66.09;101259.84;1735480;80;22669;-87
2022/10/21 10:41:16;;;;;;;24.50;16.75;;;;;;;11.11;66.23;101261.55;1734863;82;21145;-86
2022/10/21 10:43:49;;;;;;;27.67;17.05;;;;;;;11.15;66.39;101253.80;1716210;82;21089;-86
2022/10/21 10:46:30;;;;;;;22.40;16.42;;;;;;;11.18;66.11;101253.87;1734936;82;21067;-87
2022/10/21 10:49:14;;;;;;;20.00;16.00;;;;;;;11.21;66.10;101257.94;1722244;82;21523;-87
2022/10/21 10:51:41;;;;;;;;;;;;;;;11.21;65.97;101253.09;1730385;82;22204;-87
2022/10/21 10:54:21;;;;;;;22.67;16.42;;;;;;;11.19;65.73;101252.16;1670664;84;21018;-87
2022/10/21 10:57:01;;;;;;;53.75;19.35;;;;;;;11.12;65.73;101255.45;1772361;80;21073;-87
2022/10/21 10:59:39;;;;;;;54.73;22.98;;;;;;;10.97;65.73;101251.91;1737437;82;21175;-86
2022/10/21 11:02:17;;;;;;;47.90;25.97;;;;;;;10.87;65.75;101264.78;1686162;82;21083;-87
2022/10/21 11:05:18;;;;;;;33.58;24.85;;;;;;;10.80;65.83;101253.58;1675180;83;23047;-87
2022/10/21 11:07:52;;;;;;;24.00;17.90;;;;;;;10.75;65.97;101252.95;1646227;85;22190;-86
2022/10/21 11:10:38;;;;;;;23.90;17.82;;;;;;;10.62;65.98;101255.20;1743571;82;21077;-87
2022/10/21 11:13:17;;;;;;;28.20;17.60;;;;;;;10.58;66.20;101255.04;1724542;82;21531;-87
2022/10/21 11:16:12;;;;;;;25.48;18.55;;;;;;;10.60;66.36;101253.34;1714956;82;22192;-87
2022/10/21 11:19:09;;;;;;;23.60;17.15;;;;;;;10.61;66.49;101253.84;1731349;82;21738;-87
2022/10/21 11:22:03;;;;;;;26.45;18.10;;;;;;;10.57;66.35;101242.73;1689136;83;21023;-87
2022/10/21 11:24:52;;;;;;;23.80;16.42;;;;;;;10.46;66.48;101243.69;1709470;83;21208;-87
2022/10/21 11:27:42;;;;;;;25.45;18.65;;;;;;;10.41;66.68;101240.00;1709426;83;21097;-87
2022/10/21 11:30:21;;;;;;;27.07;17.25;;;;;;;10.42;66.78;101238.75;1744040;82;21472;-87
2022/10/21 11:33:11;;;;;;;22.98;17.32;;;;;;;10.47;66.85;101232.30;1714338;82;21766;-87
2022/10/21 11:36:19;;;;;;;26.30;17.27;;;;;;;10.45;66.82;101223.47;1709360;83;21099;-86
2022/10/21 11:39:32;;;;;;;25.82;18.15;;;;;;;10.40;66.89;101220.70;1708918;83;21529;-87